Johnsburg, Indiana
Current Conditions -  °F | °C
As of 8:55 AM on Saturday 01 Nov 2014 (Local Time) from KHNB Reporting Station
Clear Clear  
Wind Chill: 27°   Ceiling: Unl
Heat Index: 36°   Visibility: 10mi
Dew Point: 25°   Wind: 14mph
Humidity: 65%   Direction: 40°NE
Pressure: 30.34"   Gusts: 21mph
Location:  38.3038°N, 86.9615°W
Report Text: KHNB 011355Z AUTO 04012G18KT 10SM CLR 02/M04 A3034 RMK AO1
Loading
Personal Weather Stations






























Interactive Weather Map
Tropical Storm Tracking
New forecast layout! Learn more

10-Day Weather Forecast

Advertisements
Track Severe Weather on mobile